Time;durP1;ratioP1;P1;durP2;ratioP2;P2;SDS_P1;SDS_P2;PMS_P1;PMS_P2;Temp;Humidity;BMP_temperature;BMP_pressure;BME280_temperature;BME280_humidity;BME280_pressure;Samples;Min_cycle;Max_cycle;Signal;HPM_P1;HPM_P2
2022/05/01 00:01:19;;;;;;;3.13;2.92;;;;;;;;;;5097024;28;20039;-21
2022/05/01 00:03:45;;;;;;;3.08;2.88;;;;;;;;;;5096842;28;20035;-21
2022/05/01 00:06:13;;;;;;;3.70;3.40;;;;;;;;;;5095646;28;20024;-21
2022/05/01 00:08:40;;;;;;;2.92;2.72;;;;;;;;;;5096339;28;20016;-22
2022/05/01 00:11:08;;;;;;;3.25;3.03;;;;;;;;;;5096537;28;20039;-21
2022/05/01 00:13:34;;;;;;;3.90;3.30;;;;;;;;;;5096129;28;20024;-21
2022/05/01 00:16:01;;;;;;;3.05;2.85;;;;;;;;;;5096181;28;20149;-22
2022/05/01 00:18:27;;;;;;;3.13;2.92;;;;;;;;;;5096088;28;20028;-21
2022/05/01 00:20:54;;;;;;;3.25;3.05;;;;;;;;;;5096044;28;20047;-21
2022/05/01 00:23:20;;;;;;;3.60;3.30;;;;;;;;;;5095935;28;20027;-21
2022/05/01 00:25:46;;;;;;;2.85;2.65;;;;;;;;;;5095923;28;20418;-21
2022/05/01 00:28:14;;;;;;;3.65;3.42;;;;;;;;;;5095984;28;20053;-21
2022/05/01 00:30:40;;;;;;;3.40;3.10;;;;;;;;;;5095864;28;20449;-22
2022/05/01 00:38:36;;;;;;;2.80;2.60;;;;;;;;;;5096089;28;20046;-23
2022/05/01 00:41:04;;;;;;;3.17;2.83;;;;;;;;;;5096006;28;20444;-21
2022/05/01 00:43:31;;;;;;;3.15;2.95;;;;;;;;;;5095508;28;20121;-21
2022/05/01 00:45:58;;;;;;;3.13;2.83;;;;;;;;;;5095672;28;20024;-22
2022/05/01 00:48:24;;;;;;;2.83;2.63;;;;;;;;;;5095622;28;20453;-21
2022/05/01 00:50:52;;;;;;;3.42;3.22;;;;;;;;;;5095504;28;20048;-21
2022/05/01 00:53:18;;;;;;;3.15;2.88;;;;;;;;;;5095465;28;20028;-22
2022/05/01 00:55:44;;;;;;;2.60;2.50;;;;;;;;;;5093672;28;20456;-22
2022/05/01 00:58:10;;;;;;;3.58;3.38;;;;;;;;;;5095427;28;20035;-21
2022/05/01 01:00:37;;;;;;;2.60;2.47;;;;;;;;;;5094418;28;20028;-22
2022/05/01 01:03:03;;;;;;;2.78;2.58;;;;;;;;;;5095380;28;20032;-22
2022/05/01 01:05:29;;;;;;;3.08;2.85;;;;;;;;;;5095248;28;20118;-21
2022/05/01 01:08:00;;;;;;;2.83;2.58;;;;;;;;;;5095242;28;20379;-22
2022/05/01 01:10:28;;;;;;;2.90;2.70;;;;;;;;;;5095534;28;20364;-21
2022/05/01 01:12:54;;;;;;;3.10;2.90;;;;;;;;;;5095224;28;20032;-21
2022/05/01 01:15:20;;;;;;;3.10;2.80;;;;;;;;;;5095072;28;20449;-21
2022/05/01 01:17:52;;;;;;;3.25;3.05;;;;;;;;;;5095137;28;20174;-22
2022/05/01 01:20:18;;;;;;;;;;;;;;;;;;5095796;28;20338;-22
2022/05/01 01:22:44;;;;;;;3.10;2.90;;;;;;;;;;5095564;28;19918;-21
2022/05/01 01:25:11;;;;;;;3.05;2.85;;;;;;;;;;5095152;28;20412;-22
2022/05/01 01:27:38;;;;;;;3.28;3.03;;;;;;;;;;5095501;28;20103;-21
2022/05/01 01:32:51;;;;;;;2.50;2.30;;;;;;;;;;5095239;28;20506;-21
2022/05/01 01:35:23;;;;;;;2.88;2.67;;;;;;;;;;5094711;28;20088;-21
2022/05/01 01:37:53;;;;;;;3.97;3.15;;;;;;;;;;5095375;28;20128;-22
2022/05/01 01:40:21;;;;;;;2.95;2.75;;;;;;;;;;5094770;28;20077;-21
2022/05/01 01:42:50;;;;;;;2.85;2.65;;;;;;;;;;5094804;28;20384;-21
2022/05/01 01:45:16;;;;;;;3.00;2.80;;;;;;;;;;5094628;28;20036;-21
2022/05/01 01:47:44;;;;;;;3.08;2.78;;;;;;;;;;5094994;28;20024;-22
2022/05/01 01:50:12;;;;;;;2.97;2.78;;;;;;;;;;5094643;28;20050;-21
2022/05/01 01:52:39;;;;;;;4.15;3.10;;;;;;;;;;5093718;28;20031;-21
2022/05/01 01:55:05;;;;;;;3.45;3.25;;;;;;;;;;5094810;28;20036;-22
2022/05/01 01:57:31;;;;;;;3.30;3.10;;;;;;;;;;5094663;28;20024;-22
2022/05/01 01:59:58;;;;;;;2.85;2.63;;;;;;;;;;5094846;28;20036;-23
2022/05/01 02:02:24;;;;;;;5.53;3.22;;;;;;;;;;5094533;28;20173;-21
2022/05/01 02:04:50;;;;;;;2.65;2.45;;;;;;;;;;5094391;28;20039;-21
2022/05/01 02:07:16;;;;;;;2.53;2.38;;;;;;;;;;5096814;28;20024;-21
2022/05/01 02:09:42;;;;;;;3.30;2.47;;;;;;;;;;5098637;28;20020;-22
2022/05/01 02:12:09;;;;;;;3.00;2.80;;;;;;;;;;5098613;28;20120;-22
2022/05/01 02:14:35;;;;;;;4.10;2.72;;;;;;;;;;5099022;28;20103;-22
2022/05/01 02:17:04;;;;;;;2.97;2.78;;;;;;;;;;5099037;28;20471;-21
2022/05/01 02:19:31;;;;;;;3.15;2.95;;;;;;;;;;5098466;28;20036;-21
2022/05/01 02:21:57;;;;;;;3.13;2.92;;;;;;;;;;5098645;28;20039;-21
2022/05/01 02:24:25;;;;;;;3.50;3.20;;;;;;;;;;5098783;28;20043;-22
2022/05/01 02:26:52;;;;;;;2.70;2.50;;;;;;;;;;5098335;28;20452;-22
2022/05/01 02:29:18;;;;;;;2.58;2.40;;;;;;;;;;5098324;28;20028;-21
2022/05/01 02:31:45;;;;;;;3.28;2.75;;;;;;;;;;5098482;28;20035;-23
2022/05/01 02:34:12;;;;;;;2.67;2.47;;;;;;;;;;5098258;28;20032;-21
2022/05/01 02:36:38;;;;;;;2.70;2.50;;;;;;;;;;5098198;28;20028;-23
2022/05/01 02:39:05;;;;;;;2.80;2.60;;;;;;;;;;5098073;28;20032;-21
2022/05/01 02:41:31;;;;;;;3.03;2.83;;;;;;;;;;5098349;28;20028;-22
2022/05/01 02:43:58;;;;;;;3.42;3.20;;;;;;;;;;5097700;28;20048;-23
2022/05/01 02:46:28;;;;;;;2.80;2.60;;;;;;;;;;5097923;28;20032;-22
2022/05/01 02:48:54;;;;;;;2.63;2.42;;;;;;;;;;5098187;28;20052;-21
2022/05/01 02:51:20;;;;;;;4.38;3.10;;;;;;;;;;5097900;28;20035;-22
2022/05/01 02:53:47;;;;;;;2.90;2.70;;;;;;;;;;5097971;28;20020;-25
2022/05/01 02:56:13;;;;;;;3.25;3.05;;;;;;;;;;5098083;28;20400;-22
2022/05/01 02:58:39;;;;;;;2.90;2.75;;;;;;;;;;5097976;28;20047;-21
2022/05/01 03:01:05;;;;;;;3.20;3.00;;;;;;;;;;5097664;28;20031;-22
2022/05/01 03:03:31;;;;;;;3.38;3.05;;;;;;;;;;5096670;28;20081;-23
2022/05/01 03:05:58;;;;;;;2.60;2.33;;;;;;;;;;5079899;28;20425;-21
2022/05/01 03:08:25;;;;;;;2.80;2.70;;;;;;;;;;5097793;28;20028;-21
2022/05/01 03:10:51;;;;;;;2.92;2.72;;;;;;;;;;5097518;28;20038;-22
2022/05/01 03:13:18;;;;;;;3.03;2.83;;;;;;;;;;5097916;28;20024;-22
2022/05/01 03:15:45;;;;;;;3.30;3.10;;;;;;;;;;5096480;28;20115;-22
2022/05/01 03:23:40;;;;;;;3.30;3.00;;;;;;;;;;5097190;28;20030;-21
2022/05/01 03:26:07;;;;;;;3.13;2.92;;;;;;;;;;5097237;28;20028;-21
2022/05/01 03:28:33;;;;;;;2.55;2.45;;;;;;;;;;5097131;28;20077;-24
2022/05/01 03:30:59;;;;;;;2.60;2.40;;;;;;;;;;5097113;28;20103;-21
2022/05/01 03:33:26;;;;;;;2.50;2.38;;;;;;;;;;5097019;28;20027;-21
2022/05/01 03:35:53;;;;;;;2.65;2.45;;;;;;;;;;5097282;28;20032;-22
2022/05/01 03:38:20;;;;;;;2.63;2.42;;;;;;;;;;5096958;28;20049;-21
2022/05/01 03:40:50;;;;;;;2.92;2.60;;;;;;;;;;5097218;28;20028;-21
2022/05/01 03:43:16;;;;;;;3.25;2.75;;;;;;;;;;5096548;28;20067;-22
2022/05/01 03:45:42;;;;;;;3.08;2.78;;;;;;;;;;5095801;28;20024;-22
2022/05/01 03:48:09;;;;;;;2.58;2.42;;;;;;;;;;5096757;28;20032;-21
2022/05/01 03:50:36;;;;;;;2.63;2.42;;;;;;;;;;5096743;28;20036;-21
2022/05/01 03:53:04;;;;;;;2.65;2.45;;;;;;;;;;5096920;28;20032;-22
2022/05/01 03:55:31;;;;;;;2.42;2.25;;;;;;;;;;5097182;28;20028;-21
2022/05/01 03:57:58;;;;;;;2.53;2.33;;;;;;;;;;5097356;28;20467;-21
2022/05/01 04:00:25;;;;;;;2.72;2.53;;;;;;;;;;5096485;28;20036;-22
2022/05/01 04:02:52;;;;;;;2.60;2.40;;;;;;;;;;5097023;28;20028;-22
2022/05/01 04:05:18;;;;;;;3.03;2.83;;;;;;;;;;5097071;28;20047;-21
2022/05/01 04:07:44;;;;;;;2.75;2.55;;;;;;;;;;5096963;28;20080;-22
2022/05/01 04:10:11;;;;;;;2.40;2.30;;;;;;;;;;5096614;28;20414;-22
2022/05/01 04:12:40;;;;;;;2.45;2.35;;;;;;;;;;5096281;28;20022;-21
2022/05/01 04:15:11;;;;;;;2.85;2.67;;;;;;;;;;5096399;28;20032;-21
2022/05/01 04:17:41;;;;;;;2.95;2.75;;;;;;;;;;5096473;28;20039;-21
2022/05/01 04:20:08;;;;;;;2.60;2.45;;;;;;;;;;5096412;28;20470;-23
2022/05/01 04:22:38;;;;;;;2.45;2.22;;;;;;;;;;5096390;28;20028;-22
2022/05/01 04:25:06;;;;;;;2.83;2.63;;;;;;;;;;5096154;28;20060;-21
2022/05/01 04:27:32;;;;;;;2.28;2.17;;;;;;;;;;5096311;28;20051;-22
2022/05/01 04:29:58;;;;;;;2.30;2.20;;;;;;;;;;5095972;28;20032;-22
2022/05/01 04:32:24;;;;;;;2.80;2.60;;;;;;;;;;5096195;28;20403;-22
2022/05/01 04:34:51;;;;;;;2.80;2.60;;;;;;;;;;5096370;28;20028;-24
2022/05/01 04:37:17;;;;;;;2.80;2.60;;;;;;;;;;5095788;28;20112;-22
2022/05/01 04:39:43;;;;;;;3.92;2.35;;;;;;;;;;5096066;28;20480;-22
2022/05/01 04:42:09;;;;;;;2.30;2.20;;;;;;;;;;5095759;28;20098;-22
2022/05/01 04:44:36;;;;;;;2.75;2.63;;;;;;;;;;5095445;28;20051;-21
2022/05/01 04:47:02;;;;;;;2.47;2.38;;;;;;;;;;5095905;28;20019;-21
2022/05/01 04:49:29;;;;;;;2.28;2.13;;;;;;;;;;5095869;28;20059;-21
2022/05/01 04:51:55;;;;;;;2.78;2.60;;;;;;;;;;5095837;28;20410;-21
2022/05/01 04:54:21;;;;;;;2.42;2.25;;;;;;;;;;5095583;28;20456;-22
2022/05/01 04:57:08;;;;;;;2.97;2.70;;;;;;;;;;5095517;28;20032;-22
2022/05/01 04:59:34;;;;;;;3.45;3.25;;;;;;;;;;5095457;28;20062;-21
2022/05/01 05:02:00;;;;;;;2.30;2.20;;;;;;;;;;5095654;28;20031;-21
2022/05/01 05:04:27;;;;;;;2.58;2.38;;;;;;;;;;5094247;28;20476;-22
2022/05/01 05:06:54;;;;;;;3.42;3.13;;;;;;;;;;5095275;28;20031;-22
2022/05/01 05:12:07;;;;;;;2.88;2.67;;;;;;;;;;5095515;28;20158;-22
2022/05/01 05:14:33;;;;;;;3.05;2.85;;;;;;;;;;5095348;28;20039;-21
2022/05/01 05:17:01;;;;;;;3.00;2.80;;;;;;;;;;5095452;28;20028;-21
2022/05/01 05:19:27;;;;;;;2.53;2.42;;;;;;;;;;5095049;28;20035;-21
2022/05/01 05:21:53;;;;;;;2.47;2.28;;;;;;;;;;5095363;28;20353;-22
2022/05/01 05:24:19;;;;;;;2.70;2.50;;;;;;;;;;5095144;28;20368;-22
2022/05/01 05:26:45;;;;;;;2.28;2.15;;;;;;;;;;5095081;28;20016;-21
2022/05/01 05:29:12;;;;;;;2.58;2.38;;;;;;;;;;5094962;28;20024;-21
2022/05/01 05:31:38;;;;;;;2.88;2.67;;;;;;;;;;5094838;28;20024;-21
2022/05/01 05:34:04;;;;;;;2.78;2.58;;;;;;;;;;5095338;28;20052;-22
2022/05/01 05:36:30;;;;;;;2.63;2.53;;;;;;;;;;5095113;28;20031;-21
2022/05/01 05:38:56;;;;;;;3.05;2.85;;;;;;;;;;5093882;28;20368;-21
2022/05/01 05:41:22;;;;;;;3.00;2.70;;;;;;;;;;5094930;28;20097;-21
2022/05/01 05:43:49;;;;;;;3.63;3.00;;;;;;;;;;5094732;28;20435;-21
2022/05/01 05:46:15;;;;;;;2.78;2.40;;;;;;;;;;5095284;28;20024;-22
2022/05/01 05:48:41;;;;;;;3.72;2.30;;;;;;;;;;5095265;28;20035;-21
2022/05/01 05:51:07;;;;;;;2.58;2.47;;;;;;;;;;5094653;28;20016;-21
2022/05/01 05:53:33;;;;;;;2.83;2.65;;;;;;;;;;5094510;28;20035;-21
2022/05/01 05:55:59;;;;;;;2.60;2.45;;;;;;;;;;5094922;28;20028;-21
2022/05/01 05:58:26;;;;;;;2.88;2.67;;;;;;;;;;5094568;28;20060;-21
2022/05/01 06:00:52;;;;;;;2.72;2.53;;;;;;;;;;5094624;28;20034;-22
2022/05/01 06:03:19;;;;;;;2.80;2.60;;;;;;;;;;5094785;28;20147;-21
2022/05/01 06:05:46;;;;;;;2.42;2.33;;;;;;;;;;5094768;28;20016;-21
2022/05/01 06:08:12;;;;;;;2.28;2.17;;;;;;;;;;5094826;28;20030;-21
2022/05/01 06:10:41;;;;;;;1.95;1.85;;;;;;;;;;5094774;28;20119;-22
2022/05/01 06:13:08;;;;;;;2.30;2.20;;;;;;;;;;5094403;28;20044;-21
2022/05/01 06:15:34;;;;;;;2.30;2.20;;;;;;;;;;5094440;28;20067;-21
2022/05/01 06:18:00;;;;;;;2.63;2.47;;;;;;;;;;5094761;28;20111;-22
2022/05/01 06:20:26;;;;;;;2.33;2.13;;;;;;;;;;5094690;28;20032;-22
2022/05/01 06:22:52;;;;;;;2.90;2.70;;;;;;;;;;5094708;28;20077;-23
2022/05/01 06:25:19;;;;;;;3.08;2.78;;;;;;;;;;5094807;28;20035;-22
2022/05/01 06:27:45;;;;;;;2.30;2.20;;;;;;;;;;5094603;28;20043;-22
2022/05/01 06:30:11;;;;;;;2.63;2.42;;;;;;;;;;5094915;28;20042;-22
2022/05/01 06:32:41;;;;;;;2.75;2.55;;;;;;;;;;5094314;28;20020;-23
2022/05/01 06:35:08;;;;;;;2.50;2.40;;;;;;;;;;5094235;28;20032;-21
2022/05/01 06:37:38;;;;;;;3.10;2.42;;;;;;;;;;5094529;28;20032;-23
2022/05/01 06:40:04;;;;;;;2.35;2.15;;;;;;;;;;5094272;28;20030;-22
2022/05/01 06:42:31;;;;;;;2.30;2.20;;;;;;;;;;5094233;28;20028;-22
2022/05/01 06:44:57;;;;;;;2.50;2.30;;;;;;;;;;5094075;28;20036;-23
2022/05/01 06:47:23;;;;;;;2.60;2.40;;;;;;;;;;5094185;28;20105;-22
2022/05/01 06:49:50;;;;;;;3.03;2.83;;;;;;;;;;5093204;28;20016;-21
2022/05/01 06:52:22;;;;;;;2.10;2.00;;;;;;;;;;5094167;28;20039;-22
2022/05/01 06:54:48;;;;;;;2.80;2.60;;;;;;;;;;5097469;28;20028;-22
2022/05/01 06:57:14;;;;;;;1.85;1.75;;;;;;;;;;5096805;28;20044;-22
2022/05/01 06:59:40;;;;;;;2.85;2.65;;;;;;;;;;5097744;28;20326;-22
2022/05/01 07:02:06;;;;;;;2.33;2.22;;;;;;;;;;5098454;28;20023;-23
2022/05/01 07:04:33;;;;;;;2.22;2.00;;;;;;;;;;5097504;28;20028;-23
2022/05/01 07:07:00;;;;;;;2.60;2.35;;;;;;;;;;5097615;28;20371;-22
2022/05/01 07:09:26;;;;;;;2.67;2.47;;;;;;;;;;5098107;28;20464;-21
2022/05/01 07:11:52;;;;;;;2.88;2.67;;;;;;;;;;5097443;28;20016;-20
2022/05/01 07:14:19;;;;;;;3.00;2.80;;;;;;;;;;5097635;28;20032;-21
2022/05/01 07:16:45;;;;;;;2.75;2.58;;;;;;;;;;5097452;28;20070;-21
2022/05/01 07:19:11;;;;;;;2.30;2.13;;;;;;;;;;5097363;28;20026;-22
2022/05/01 07:21:37;;;;;;;2.58;2.38;;;;;;;;;;5097330;28;20111;-23
2022/05/01 07:24:03;;;;;;;2.47;2.38;;;;;;;;;;5097061;28;20044;-21
2022/05/01 07:26:33;;;;;;;2.72;2.53;;;;;;;;;;5097209;28;20036;-22
2022/05/01 07:29:08;;;;;;;3.13;2.53;;;;;;;;;;5097141;28;20024;-21
2022/05/01 07:31:34;;;;;;;2.55;2.25;;;;;;;;;;5097406;28;20115;-22
2022/05/01 07:34:00;;;;;;;2.55;2.42;;;;;;;;;;5097196;28;20047;-21
2022/05/01 07:36:27;;;;;;;2.55;2.35;;;;;;;;;;5097296;28;20027;-21
2022/05/01 07:38:53;;;;;;;2.25;2.15;;;;;;;;;;5096053;28;20368;-21
2022/05/01 07:41:19;;;;;;;2.58;2.47;;;;;;;;;;5097752;28;20020;-22
2022/05/01 07:43:46;;;;;;;2.72;2.53;;;;;;;;;;5096810;28;20043;-22
2022/05/01 07:46:12;;;;;;;2.65;2.55;;;;;;;;;;5096898;28;20116;-21
2022/05/01 07:48:38;;;;;;;2.78;2.58;;;;;;;;;;5096776;28;20338;-21
2022/05/01 07:51:05;;;;;;;2.20;2.10;;;;;;;;;;5096747;28;20052;-23
2022/05/01 07:53:33;;;;;;;2.40;2.28;;;;;;;;;;5096671;28;20111;-21
2022/05/01 07:55:59;;;;;;;2.38;2.28;;;;;;;;;;5096618;28;20097;-24
2022/05/01 07:58:26;;;;;;;1.90;1.80;;;;;;;;;;5097162;28;20032;-22
2022/05/01 08:00:54;;;;;;;2.30;2.10;;;;;;;;;;5096595;28;20502;-21
2022/05/01 08:06:06;;;;;;;5.30;2.47;;;;;;;;;;5096415;28;20507;-21
2022/05/01 08:08:33;;;;;;;2.60;2.40;;;;;;;;;;5096691;28;20461;-21
2022/05/01 08:11:04;;;;;;;2.45;2.35;;;;;;;;;;5096654;28;20099;-21
2022/05/01 08:13:30;;;;;;;2.40;2.30;;;;;;;;;;5096341;28;20447;-21
2022/05/01 08:15:56;;;;;;;2.40;2.20;;;;;;;;;;5096273;28;20043;-22
2022/05/01 08:21:08;;;;;;;2.20;2.10;;;;;;;;;;5096521;28;20123;-22
2022/05/01 08:23:34;;;;;;;2.38;2.17;;;;;;;;;;5096342;28;20092;-21
2022/05/01 08:26:03;;;;;;;2.15;2.05;;;;;;;;;;5096012;28;20032;-22
2022/05/01 08:28:30;;;;;;;3.05;2.75;;;;;;;;;;5096064;28;20352;-21
2022/05/01 08:30:56;;;;;;;2.38;2.28;;;;;;;;;;5096551;28;20460;-21
2022/05/01 08:33:23;;;;;;;2.30;2.20;;;;;;;;;;5096135;28;20062;-22
2022/05/01 08:35:49;;;;;;;2.42;2.28;;;;;;;;;;5096177;28;20360;-22
2022/05/01 08:38:15;;;;;;;3.03;2.63;;;;;;;;;;5095773;28;20035;-21
2022/05/01 08:40:43;;;;;;;2.40;2.30;;;;;;;;;;5096378;28;20110;-21
2022/05/01 08:43:09;;;;;;;2.40;2.20;;;;;;;;;;5095483;28;20387;-21
2022/05/01 08:45:44;;;;;;;2.63;1.95;;;;;;;;;;5096176;28;20050;-26
2022/05/01 08:48:13;;;;;;;2.47;2.28;;;;;;;;;;5095694;28;20481;-23
2022/05/01 08:50:39;;;;;;;3.45;2.33;;;;;;;;;;5095563;28;20031;-22
2022/05/01 08:53:06;;;;;;;2.30;2.20;;;;;;;;;;5094555;28;20517;-22
2022/05/01 08:55:33;;;;;;;2.70;2.20;;;;;;;;;;5095513;28;20115;-22
2022/05/01 08:58:00;;;;;;;2.60;2.50;;;;;;;;;;5095762;28;20036;-21
2022/05/01 09:00:30;;;;;;;2.65;2.50;;;;;;;;;;5095434;28;20032;-21
2022/05/01 09:02:57;;;;;;;2.20;2.10;;;;;;;;;;5095383;28;20032;-22
2022/05/01 09:05:23;;;;;;;2.50;2.40;;;;;;;;;;5095167;28;20294;-21
2022/05/01 09:07:49;;;;;;;2.88;2.53;;;;;;;;;;5095303;28;20020;-21
2022/05/01 09:10:16;;;;;;;2.38;2.28;;;;;;;;;;5095516;28;20020;-21
2022/05/01 09:12:52;;;;;;;2.30;2.20;;;;;;;;;;5095203;28;20035;-21
2022/05/01 09:15:56;;;;;;;2.30;2.20;;;;;;;;;;5095413;28;20125;-21
2022/05/01 09:18:22;;;;;;;2.88;2.67;;;;;;;;;;5014387;28;20034;-21
2022/05/01 09:21:07;;;;;;;2.78;2.58;;;;;;;;;;5013590;28;20056;-21
2022/05/01 09:23:44;;;;;;;2.30;2.20;;;;;;;;;;5062221;28;20040;-21
2022/05/01 09:26:11;;;;;;;2.45;2.35;;;;;;;;;;5095236;28;20441;-22
2022/05/01 09:28:38;;;;;;;2.85;2.65;;;;;;;;;;5095246;28;20020;-21
2022/05/01 09:31:04;;;;;;;2.42;2.33;;;;;;;;;;5094019;28;20031;-21
2022/05/01 09:33:30;;;;;;;2.22;2.13;;;;;;;;;;5094791;28;20039;-22
2022/05/01 09:35:57;;;;;;;2.22;2.13;;;;;;;;;;5094844;28;20024;-21
2022/05/01 09:38:25;;;;;;;2.53;2.25;;;;;;;;;;5094862;28;20554;-22
2022/05/01 09:41:00;;;;;;;2.47;2.38;;;;;;;;;;5094778;28;20032;-22
2022/05/01 09:43:34;;;;;;;2.30;2.20;;;;;;;;;;5094681;28;20142;-21
2022/05/01 09:46:33;;;;;;;2.25;2.15;;;;;;;;;;5094668;28;20044;-22
2022/05/01 09:49:00;;;;;;;2.28;2.08;;;;;;;;;;5050584;28;20036;-23
2022/05/01 09:51:27;;;;;;;2.45;2.35;;;;;;;;;;5094725;28;20032;-21
2022/05/01 09:53:53;;;;;;;2.50;2.30;;;;;;;;;;5095164;28;20043;-21
2022/05/01 09:56:19;;;;;;;2.60;2.50;;;;;;;;;;5094939;28;20024;-22
2022/05/01 09:58:45;;;;;;;4.68;3.08;;;;;;;;;;5094578;28;20028;-21
2022/05/01 10:01:12;;;;;;;2.58;2.40;;;;;;;;;;5094649;28;20016;-21
2022/05/01 10:03:44;;;;;;;2.25;2.15;;;;;;;;;;5095033;28;20028;-22
2022/05/01 10:06:12;;;;;;;2.78;2.67;;;;;;;;;;5095174;28;20386;-21
2022/05/01 10:08:39;;;;;;;2.38;2.17;;;;;;;;;;5094605;28;20044;-22
2022/05/01 10:11:05;;;;;;;2.20;2.10;;;;;;;;;;5094808;28;20353;-22
2022/05/01 10:13:32;;;;;;;2.00;1.90;;;;;;;;;;5094471;28;20026;-22
2022/05/01 10:16:00;;;;;;;2.40;2.30;;;;;;;;;;5095297;28;20027;-22
2022/05/01 10:18:26;;;;;;;2.67;2.47;;;;;;;;;;5094729;28;20032;-22
2022/05/01 10:20:52;;;;;;;2.33;2.22;;;;;;;;;;5094453;28;20464;-21
2022/05/01 10:23:19;;;;;;;3.10;2.90;;;;;;;;;;5094590;28;20099;-21
2022/05/01 10:25:51;;;;;;;3.25;3.05;;;;;;;;;;5094317;28;20092;-21
2022/05/01 10:28:35;;;;;;;2.38;2.28;;;;;;;;;;5096619;28;20055;-21
2022/05/01 10:34:07;;;;;;;2.33;2.13;;;;;;;;;;5098482;28;20036;-22
2022/05/01 10:36:36;;;;;;;2.33;2.22;;;;;;;;;;5098271;28;20460;-22
2022/05/01 10:39:09;;;;;;;2.30;2.20;;;;;;;;;;5098191;28;20024;-22
2022/05/01 10:41:35;;;;;;;2.30;2.20;;;;;;;;;;5098421;28;20032;-21
2022/05/01 10:44:03;;;;;;;2.47;2.28;;;;;;;;;;5097897;28;20376;-21
2022/05/01 10:46:30;;;;;;;2.88;2.67;;;;;;;;;;5098003;28;20020;-22
2022/05/01 10:49:00;;;;;;;2.92;2.53;;;;;;;;;;5097997;28;20023;-22
2022/05/01 10:51:38;;;;;;;3.20;3.00;;;;;;;;;;5098248;28;20044;-21
2022/05/01 10:54:10;;;;;;;2.45;2.35;;;;;;;;;;5098025;28;20028;-21
2022/05/01 10:56:37;;;;;;;2.38;2.25;;;;;;;;;;5097827;28;20023;-21
2022/05/01 10:59:22;;;;;;;2.67;2.58;;;;;;;;;;5080455;28;20460;-22
2022/05/01 11:01:52;;;;;;;2.70;2.60;;;;;;;;;;5098247;28;20020;-21
2022/05/01 11:04:22;;;;;;;2.83;2.67;;;;;;;;;;5097826;28;20079;-22
2022/05/01 11:06:54;;;;;;;2.25;2.15;;;;;;;;;;5097661;28;20036;-22
2022/05/01 11:09:22;;;;;;;2.85;2.65;;;;;;;;;;5097886;28;20016;-21
2022/05/01 11:11:56;;;;;;;2.80;2.63;;;;;;;;;;5097544;28;20122;-22
2022/05/01 11:14:35;;;;;;;2.72;2.53;;;;;;;;;;5097536;28;20024;-21
2022/05/01 11:17:03;;;;;;;3.10;2.90;;;;;;;;;;5097707;28;20028;-21
2022/05/01 11:19:31;;;;;;;3.20;3.00;;;;;;;;;;5097656;28;20032;-21
2022/05/01 11:21:58;;;;;;;2.70;2.50;;;;;;;;;;5097309;28;20028;-22
2022/05/01 11:24:43;;;;;;;2.85;2.65;;;;;;;;;;5097159;28;20032;-21
2022/05/01 11:27:16;;;;;;;2.63;2.42;;;;;;;;;;5097292;28;20100;-22
2022/05/01 11:30:01;;;;;;;3.65;2.53;;;;;;;;;;5097504;28;20032;-23
2022/05/01 11:32:42;;;;;;;2.83;2.70;;;;;;;;;;5097164;28;20107;-22
2022/05/01 11:35:08;;;;;;;4.15;3.78;;;;;;;;;;5097329;28;20023;-22
2022/05/01 11:37:47;;;;;;;2.50;2.30;;;;;;;;;;5097598;28;20035;-22
2022/05/01 11:40:21;;;;;;;3.00;2.80;;;;;;;;;;5096326;28;20032;-21
2022/05/01 11:42:48;;;;;;;2.58;2.47;;;;;;;;;;5096751;28;20123;-22
2022/05/01 11:45:14;;;;;;;3.03;2.83;;;;;;;;;;5096826;28;20032;-21
2022/05/01 11:47:40;;;;;;;2.78;2.60;;;;;;;;;;5097137;28;20024;-21
2022/05/01 11:50:07;;;;;;;2.88;2.67;;;;;;;;;;5096812;28;20099;-21
2022/05/01 11:52:37;;;;;;;2.97;2.78;;;;;;;;;;5096790;28;20484;-22
2022/05/01 11:55:09;;;;;;;2.65;2.53;;;;;;;;;;5096687;28;20073;-21
2022/05/01 12:03:13;;;;;;;3.20;2.90;;;;;;;;;;5096857;28;20372;-22
2022/05/01 12:05:46;;;;;;;3.03;2.80;;;;;;;;;;5096775;28;20060;-22
2022/05/01 12:08:12;;;;;;;2.55;2.45;;;;;;;;;;5096476;28;20042;-25
2022/05/01 12:10:42;;;;;;;2.70;2.60;;;;;;;;;;5096679;28;20051;-22
2022/05/01 12:13:35;;;;;;;3.10;2.90;;;;;;;;;;5096578;28;20027;-22
2022/05/01 12:16:01;;;;;;;2.92;2.83;;;;;;;;;;5092810;28;20039;-23
2022/05/01 12:18:27;;;;;;;2.70;2.60;;;;;;;;;;5096270;28;20034;-23
2022/05/01 12:20:53;;;;;;;2.95;2.80;;;;;;;;;;5096504;28;20024;-22
2022/05/01 12:23:20;;;;;;;2.50;2.40;;;;;;;;;;5096080;28;20032;-23
2022/05/01 12:25:54;;;;;;;2.60;2.50;;;;;;;;;;5096334;28;20058;-22
2022/05/01 12:28:20;;;;;;;2.78;2.60;;;;;;;;;;5096408;28;20036;-22
2022/05/01 12:30:50;;;;;;;3.03;2.83;;;;;;;;;;5095104;28;20365;-23
2022/05/01 12:33:21;;;;;;;3.42;2.30;;;;;;;;;;5095912;28;20035;-22
2022/05/01 12:35:52;;;;;;;2.67;2.58;;;;;;;;;;5096217;28;20416;-22
2022/05/01 12:38:18;;;;;;;3.20;3.05;;;;;;;;;;5096186;28;20027;-28
2022/05/01 12:46:24;;;;;;;3.08;2.88;;;;;;;;;;5095731;28;20372;-22
2022/05/01 12:48:51;;;;;;;3.22;3.03;;;;;;;;;;5095734;28;20016;-22
2022/05/01 12:51:17;;;;;;;2.92;2.72;;;;;;;;;;5094919;28;20029;-23
2022/05/01 12:53:43;;;;;;;3.38;3.08;;;;;;;;;;5095481;28;20024;-21
2022/05/01 12:56:22;;;;;;;2.67;2.58;;;;;;;;;;5095556;28;20028;-22
2022/05/01 12:58:50;;;;;;;3.17;2.97;;;;;;;;;;5095787;28;20020;-22
2022/05/01 13:01:24;;;;;;;3.38;3.17;;;;;;;;;;5096001;28;20089;-22
2022/05/01 13:03:50;;;;;;;3.53;3.22;;;;;;;;;;5094394;28;20028;-22
2022/05/01 13:06:17;;;;;;;2.92;2.72;;;;;;;;;;5095252;28;20027;-22
2022/05/01 13:08:44;;;;;;;3.38;3.17;;;;;;;;;;5095332;28;20024;-23
2022/05/01 13:11:11;;;;;;;3.58;3.38;;;;;;;;;;5095544;28;20032;-22
2022/05/01 13:13:57;;;;;;;3.22;3.03;;;;;;;;;;5095148;28;20453;-22
2022/05/01 13:16:26;;;;;;;3.22;3.03;;;;;;;;;;5095227;28;20066;-27
2022/05/01 13:18:54;;;;;;;3.00;2.80;;;;;;;;;;5095170;28;20082;-22
2022/05/01 13:21:21;;;;;;;3.10;2.90;;;;;;;;;;5095126;28;20091;-21
2022/05/01 13:23:49;;;;;;;3.47;3.28;;;;;;;;;;5095233;28;20024;-22
2022/05/01 13:26:15;;;;;;;2.65;2.55;;;;;;;;;;5094979;28;20472;-22
2022/05/01 13:28:44;;;;;;;3.28;3.08;;;;;;;;;;5094070;28;20464;-22
2022/05/01 13:31:10;;;;;;;3.13;2.92;;;;;;;;;;5094996;28;20024;-22
2022/05/01 13:33:36;;;;;;;3.17;2.97;;;;;;;;;;5094873;28;20111;-22
2022/05/01 13:36:02;;;;;;;3.75;3.22;;;;;;;;;;5094932;28;20074;-22
2022/05/01 13:38:28;;;;;;;3.75;3.45;;;;;;;;;;5095180;28;20028;-21
2022/05/01 13:46:24;;;;;;;3.20;3.00;;;;;;;;;;5095175;28;20046;-21
2022/05/01 13:48:51;;;;;;;3.47;3.00;;;;;;;;;;5095332;28;20085;-22
2022/05/01 13:51:18;;;;;;;3.53;3.33;;;;;;;;;;5094706;28;20024;-21
2022/05/01 13:53:44;;;;;;;3.15;2.97;;;;;;;;;;5094922;28;20555;-27
2022/05/01 13:56:11;;;;;;;3.47;3.28;;;;;;;;;;5095239;28;20028;-22
2022/05/01 13:58:38;;;;;;;3.70;3.40;;;;;;;;;;5094618;28;20020;-22
2022/05/01 14:01:04;;;;;;;2.95;2.75;;;;;;;;;;5094702;28;20361;-21
2022/05/01 14:03:30;;;;;;;3.55;3.33;;;;;;;;;;5097423;28;20407;-22
2022/05/01 14:05:57;;;;;;;3.50;3.30;;;;;;;;;;5098759;28;20107;-21
2022/05/01 14:08:23;;;;;;;3.35;3.15;;;;;;;;;;5099080;28;20394;-22
2022/05/01 14:10:49;;;;;;;3.67;3.47;;;;;;;;;;5099027;28;20158;-23
2022/05/01 14:13:15;;;;;;;3.50;3.30;;;;;;;;;;5097662;28;20028;-21
2022/05/01 14:15:41;;;;;;;2.90;2.80;;;;;;;;;;5098657;28;20122;-22
2022/05/01 14:18:09;;;;;;;3.55;3.35;;;;;;;;;;5098605;28;20028;-22
2022/05/01 14:20:35;;;;;;;3.42;3.22;;;;;;;;;;5098814;28;20028;-22
2022/05/01 14:23:04;;;;;;;2.88;2.78;;;;;;;;;;5098497;28;20081;-23
2022/05/01 14:25:31;;;;;;;3.35;3.15;;;;;;;;;;5098643;28;20124;-21
2022/05/01 14:27:57;;;;;;;3.30;3.10;;;;;;;;;;5098677;28;20410;-22
2022/05/01 14:30:24;;;;;;;3.75;3.55;;;;;;;;;;5098911;28;20425;-22
2022/05/01 14:32:54;;;;;;;3.40;3.20;;;;;;;;;;5098282;28;20031;-23
2022/05/01 14:35:21;;;;;;;3.38;3.17;;;;;;;;;;5098191;28;20107;-21
2022/05/01 14:37:58;;;;;;;3.78;3.58;;;;;;;;;;5098230;28;20129;-23
2022/05/01 14:40:25;;;;;;;2.90;2.78;;;;;;;;;;5098451;28;20038;-22
2022/05/01 14:42:51;;;;;;;3.35;3.15;;;;;;;;;;5098465;28;20353;-21
2022/05/01 14:45:19;;;;;;;3.58;3.38;;;;;;;;;;5098254;28;20039;-21
2022/05/01 14:47:57;;;;;;;3.50;3.30;;;;;;;;;;5098064;28;20032;-23
2022/05/01 14:50:24;;;;;;;3.70;3.50;;;;;;;;;;5097991;28;20020;-22
2022/05/01 14:52:52;;;;;;;3.30;3.15;;;;;;;;;;5098232;28;20054;-22
2022/05/01 14:55:20;;;;;;;3.10;2.90;;;;;;;;;;5097858;28;20049;-22
2022/05/01 14:57:49;;;;;;;2.90;2.80;;;;;;;;;;5097860;28;20035;-22
2022/05/01 15:08:37;;;;;;;3.58;3.38;;;;;;;;;;5097960;28;20365;-22
2022/05/01 15:11:03;;;;;;;3.40;3.20;;;;;;;;;;5097532;28;20020;-23
2022/05/01 15:13:30;;;;;;;3.63;3.42;;;;;;;;;;5096987;28;20036;-22
2022/05/01 15:15:59;;;;;;;3.78;3.58;;;;;;;;;;5096886;28;20024;-22
2022/05/01 15:18:28;;;;;;;3.50;3.30;;;;;;;;;;5097696;28;20035;-22
2022/05/01 15:21:03;;;;;;;3.70;3.50;;;;;;;;;;5097956;28;20043;-22
2022/05/01 15:24:07;;;;;;;4.35;4.05;;;;;;;;;;5097603;28;20402;-22
2022/05/01 15:26:34;;;;;;;3.95;3.75;;;;;;;;;;5016458;28;20435;-22
2022/05/01 15:29:02;;;;;;;3.75;3.55;;;;;;;;;;5015729;28;20391;-22
2022/05/01 15:31:29;;;;;;;4.00;3.80;;;;;;;;;;5055635;28;20476;-21
2022/05/01 15:33:58;;;;;;;3.75;3.55;;;;;;;;;;5097331;28;20444;-22
2022/05/01 15:36:35;;;;;;;3.47;3.28;;;;;;;;;;5097691;28;20027;-22
2022/05/01 15:39:04;;;;;;;3.40;3.20;;;;;;;;;;5097107;28;20036;-23